Time;durP1;ratioP1;P1;durP2;ratioP2;P2;SDS_P1;SDS_P2;PMS_P1;PMS_P2;Temp;Humidity;BMP_temperature;BMP_pressure;BME280_temperature;BME280_humidity;BME280_pressure;Samples;Min_cycle;Max_cycle;Signal;HPM_P1;HPM_P2
2024/03/10 00:00:14;;;;;;;30.80;20.55;;;4.10;99.90;;;;;;5033693;28;20202;-60
2024/03/10 00:02:43;;;;;;;31.88;21.98;;;4.00;99.90;;;;;;5033164;28;20321;-59
2024/03/10 00:05:12;;;;;;;28.83;20.30;;;4.00;99.90;;;;;;5034214;28;20202;-58
2024/03/10 00:07:38;;;;;;;34.65;21.02;;;4.00;99.90;;;;;;5033905;28;20597;-60
2024/03/10 00:10:07;;;;;;;30.05;21.25;;;4.00;99.90;;;;;;5034058;28;20672;-60
2024/03/10 00:12:33;;;;;;;30.45;21.55;;;4.00;99.90;;;;;;5033467;28;20218;-60
2024/03/10 00:15:01;;;;;;;29.55;19.90;;;4.00;99.90;;;;;;5033422;28;20224;-59
2024/03/10 00:17:28;;;;;;;31.23;20.27;;;3.90;99.90;;;;;;5033263;28;20222;-60
2024/03/10 00:19:55;;;;;;;27.63;19.40;;;3.90;99.90;;;;;;5033343;28;20218;-61
2024/03/10 00:22:22;;;;;;;29.45;20.00;;;3.90;99.90;;;;;;5034188;28;20218;-61
2024/03/10 00:24:49;;;;;;;32.22;19.70;;;3.90;99.90;;;;;;5036358;28;20202;-60
2024/03/10 00:27:16;;;;;;;28.00;20.20;;;3.90;99.90;;;;;;5035853;28;20228;-60
2024/03/10 00:29:43;;;;;;;30.15;20.33;;;3.90;99.90;;;;;;5038525;28;20786;-59
2024/03/10 00:32:12;;;;;;;35.17;21.00;;;3.90;99.90;;;;;;5038191;28;20284;-59
2024/03/10 00:34:39;;;;;;;33.17;21.55;;;3.90;99.90;;;;;;5037871;28;20202;-59
2024/03/10 00:37:06;;;;;;;30.20;19.95;;;3.90;99.90;;;;;;5037899;28;20256;-59
2024/03/10 00:39:33;;;;;;;31.08;20.65;;;3.90;99.90;;;;;;5036667;28;20233;-58
2024/03/10 00:42:00;;;;;;;34.78;22.60;;;3.90;99.90;;;;;;5036826;28;20244;-59
2024/03/10 00:44:27;;;;;;;33.90;21.67;;;3.90;99.90;;;;;;5037062;28;20202;-59
2024/03/10 00:46:54;;;;;;;33.60;21.15;;;3.90;99.90;;;;;;5036668;28;20206;-59
2024/03/10 00:49:22;;;;;;;31.60;19.95;;;3.90;99.90;;;;;;5037110;28;20207;-61
2024/03/10 00:51:49;;;;;;;33.92;21.60;;;3.90;99.90;;;;;;5036585;28;20254;-59
2024/03/10 00:54:16;;;;;;;32.33;21.45;;;3.80;99.90;;;;;;5036524;28;20206;-58
2024/03/10 00:56:42;;;;;;;37.65;21.63;;;3.80;99.90;;;;;;5036360;28;20202;-60
2024/03/10 00:59:09;;;;;;;32.47;21.00;;;3.80;99.90;;;;;;5036271;28;20225;-58
2024/03/10 01:01:39;;;;;;;36.88;22.25;;;3.80;99.90;;;;;;5036003;28;20241;-60
2024/03/10 01:04:06;;;;;;;34.25;22.35;;;3.80;99.90;;;;;;5036602;28;20198;-60
2024/03/10 01:06:34;;;;;;;31.38;21.73;;;3.80;99.90;;;;;;5036258;28;20206;-61
2024/03/10 01:09:01;;;;;;;36.25;20.67;;;3.70;99.90;;;;;;5036414;28;20207;-59
2024/03/10 01:11:28;;;;;;;37.00;22.17;;;3.80;99.90;;;;;;5036303;28;20229;-59
2024/03/10 01:13:55;;;;;;;34.35;23.48;;;3.80;99.90;;;;;;5036375;28;20289;-60
2024/03/10 01:16:21;;;;;;;32.60;22.80;;;3.70;99.90;;;;;;5036804;28;20703;-60
2024/03/10 01:18:51;;;;;;;32.15;20.35;;;3.70;99.90;;;;;;5037309;28;20233;-60
2024/03/10 01:21:18;;;;;;;33.58;20.48;;;3.70;99.90;;;;;;5036033;28;20226;-60
2024/03/10 01:23:47;;;;;;;34.22;23.05;;;3.70;99.90;;;;;;5036065;28;20589;-61
2024/03/10 01:26:14;;;;;;;33.08;22.55;;;3.60;99.90;;;;;;5036184;28;20320;-60
2024/03/10 01:28:41;;;;;;;37.65;21.75;;;3.60;99.90;;;;;;5036264;28;20202;-60
2024/03/10 01:31:09;;;;;;;33.13;21.33;;;3.60;99.90;;;;;;5036100;28;20234;-59
2024/03/10 01:33:36;;;;;;;33.75;20.90;;;3.60;99.90;;;;;;5036133;28;20268;-59
2024/03/10 01:36:04;;;;;;;34.35;21.17;;;3.60;99.90;;;;;;5035809;28;20211;-60
2024/03/10 01:38:31;;;;;;;36.47;23.17;;;3.50;99.90;;;;;;5035764;28;20226;-59
2024/03/10 01:40:59;;;;;;;37.13;22.65;;;3.50;99.90;;;;;;5035006;28;20202;-60
2024/03/10 01:43:26;;;;;;;32.97;21.02;;;3.50;99.90;;;;;;5035997;28;20202;-61
2024/03/10 01:46:01;;;;;;;37.42;22.60;;;3.50;99.90;;;;;;5035831;28;20210;-60
2024/03/10 01:48:28;;;;;;;33.90;21.55;;;3.50;99.90;;;;;;5035840;28;20189;-60
2024/03/10 01:50:55;;;;;;;36.72;23.08;;;3.50;99.90;;;;;;5035784;28;20204;-59
2024/03/10 01:53:22;;;;;;;43.72;25.30;;;3.50;99.90;;;;;;5035462;28;20562;-59
2024/03/10 01:55:49;;;;;;;39.28;25.10;;;3.50;99.90;;;;;;5035709;28;20206;-58
2024/03/10 01:58:17;;;;;;;35.45;24.95;;;3.50;99.90;;;;;;5035133;28;20704;-59
2024/03/10 02:00:44;;;;;;;35.50;23.15;;;3.40;99.90;;;;;;5035456;28;20209;-59
2024/03/10 02:03:12;;;;;;;39.38;25.25;;;3.40;99.90;;;;;;5034956;28;20649;-58
2024/03/10 02:05:39;;;;;;;39.42;24.92;;;3.40;99.90;;;;;;5035357;28;20208;-58
2024/03/10 02:08:06;;;;;;;38.30;24.70;;;3.40;99.90;;;;;;5035065;28;20569;-60
2024/03/10 02:10:34;;;;;;;35.60;25.70;;;3.30;99.90;;;;;;5035326;28;20213;-59
2024/03/10 02:13:01;;;;;;;43.22;24.88;;;3.30;99.90;;;;;;5035231;28;20229;-60
2024/03/10 02:15:29;;;;;;;44.55;25.45;;;3.30;99.90;;;;;;5035243;28;20734;-60
2024/03/10 02:17:56;;;;;;;36.92;23.73;;;3.30;99.90;;;;;;5036243;28;20289;-61
2024/03/10 02:20:23;;;;;;;36.13;23.83;;;3.20;99.90;;;;;;5037339;28;20198;-61
2024/03/10 02:22:50;;;;;;;37.53;24.75;;;3.20;99.90;;;;;;5035172;28;20229;-59
2024/03/10 02:25:22;;;;;;;40.03;24.20;;;3.20;99.90;;;;;;5034978;28;20213;-60
2024/03/10 02:27:52;;;;;;;37.53;24.42;;;3.20;99.90;;;;;;5034938;28;20187;-60
2024/03/10 02:30:29;;;;;;;41.17;25.92;;;3.10;99.90;;;;;;5035051;28;20206;-60
2024/03/10 02:49:27;;;;;;;43.67;25.52;;;3.00;99.90;;;;;;5034456;28;20268;-60
2024/03/10 02:51:54;;;;;;;43.10;26.70;;;3.00;99.90;;;;;;5033490;28;20229;-60
2024/03/10 02:54:20;;;;;;;41.85;25.48;;;3.00;99.90;;;;;;5036342;28;20792;-60
2024/03/10 02:56:48;;;;;;;41.90;26.30;;;2.90;99.90;;;;;;5038306;28;20222;-60
2024/03/10 02:59:16;;;;;;;43.05;25.25;;;2.90;99.90;;;;;;5036781;28;20229;-60
2024/03/10 03:01:42;;;;;;;37.53;23.70;;;2.90;99.90;;;;;;5079774;22;20229;-60
2024/03/10 03:04:10;;;;;;;42.97;27.67;;;2.90;99.90;;;;;;5034225;28;20198;-61
2024/03/10 03:06:37;;;;;;;39.10;24.73;;;2.80;99.90;;;;;;5034179;28;20205;-58
2024/03/10 03:09:05;;;;;;;50.20;28.25;;;2.80;99.90;;;;;;5033994;28;20198;-61
2024/03/10 03:11:32;;;;;;;48.17;26.65;;;2.80;99.90;;;;;;5033937;28;20218;-59
2024/03/10 03:13:59;;;;;;;41.13;26.73;;;2.70;99.90;;;;;;5034060;28;20651;-60
2024/03/10 03:16:27;;;;;;;43.53;26.70;;;2.70;99.90;;;;;;5033951;28;20198;-60
2024/03/10 03:18:53;;;;;;;43.00;26.40;;;2.70;99.90;;;;;;5034509;28;20237;-60
2024/03/10 03:21:20;;;;;;;46.10;27.05;;;2.70;99.90;;;;;;5033662;28;20226;-59
2024/03/10 03:23:47;;;;;;;55.67;27.58;;;2.70;99.90;;;;;;5033751;28;20225;-59
2024/03/10 03:26:14;;;;;;;47.40;26.45;;;2.70;99.90;;;;;;5033526;28;20206;-60
2024/03/10 03:28:41;;;;;;;46.70;27.20;;;2.70;99.90;;;;;;5033635;28;20194;-60
2024/03/10 03:31:08;;;;;;;49.00;27.58;;;2.70;99.90;;;;;;5033643;28;20233;-60
2024/03/10 03:33:36;;;;;;;49.38;29.10;;;2.70;99.90;;;;;;5033685;28;20199;-60
2024/03/10 03:36:04;;;;;;;50.88;29.05;;;2.70;99.90;;;;;;5033381;28;20210;-59
2024/03/10 03:38:31;;;;;;;41.85;25.98;;;2.70;99.90;;;;;;5033691;28;20218;-60
2024/03/10 03:40:57;;;;;;;46.33;25.98;;;2.70;99.90;;;;;;5033382;28;20211;-60
2024/03/10 03:43:24;;;;;;;48.80;27.48;;;2.70;99.90;;;;;;5033175;28;20202;-60
2024/03/10 03:45:51;;;;;;;48.40;29.50;;;2.60;99.90;;;;;;5033482;28;20218;-60
2024/03/10 03:48:18;;;;;;;45.53;28.38;;;2.60;99.90;;;;;;5033457;28;20198;-59
2024/03/10 03:50:46;;;;;;;49.22;27.40;;;2.60;99.90;;;;;;5033372;28;20206;-61
2024/03/10 03:53:13;;;;;;;49.47;28.63;;;2.60;99.90;;;;;;5034104;28;20202;-60
2024/03/10 03:55:39;;;;;;;44.90;26.75;;;2.60;99.90;;;;;;5034077;28;20564;-60
2024/03/10 03:58:06;;;;;;;45.55;28.10;;;2.60;99.90;;;;;;5033196;28;20203;-60
2024/03/10 04:00:33;;;;;;;48.28;29.02;;;2.50;99.90;;;;;;5033257;28;20218;-60
2024/03/10 04:02:59;;;;;;;48.05;28.20;;;2.50;99.90;;;;;;5032573;28;20233;-60
2024/03/10 04:05:26;;;;;;;52.05;30.48;;;2.50;99.90;;;;;;5032777;28;20206;-60
2024/03/10 04:07:54;;;;;;;47.08;29.10;;;2.50;99.90;;;;;;5033087;28;20199;-59
2024/03/10 04:13:19;;;;;;;46.42;27.55;;;2.50;99.90;;;;;;5169456;27;20544;-62
2024/03/10 04:15:46;;;;;;;52.35;29.50;;;2.50;99.90;;;;;;5153651;27;20202;-62
2024/03/10 04:18:13;;;;;;;51.60;28.70;;;2.40;99.90;;;;;;5153756;27;20202;-60
2024/03/10 04:20:41;;;;;;;57.63;30.50;;;2.40;99.90;;;;;;5153704;27;20261;-60
2024/03/10 04:23:08;;;;;;;52.42;28.88;;;2.40;99.90;;;;;;5133591;28;20673;-61
2024/03/10 04:25:35;;;;;;;53.47;31.88;;;2.40;99.90;;;;;;5132422;28;20199;-61
2024/03/10 04:28:02;;;;;;;54.70;29.85;;;2.40;99.90;;;;;;5132737;28;20663;-61
2024/03/10 04:30:30;;;;;;;49.95;29.00;;;2.40;99.90;;;;;;5132102;28;20203;-61
2024/03/10 04:32:57;;;;;;;41.35;29.38;;;2.40;99.90;;;;;;5132564;28;20329;-61
2024/03/10 04:35:24;;;;;;;59.00;31.88;;;2.40;99.90;;;;;;5132246;27;20282;-61
2024/03/10 04:37:53;;;;;;;49.90;28.95;;;2.40;99.90;;;;;;5131280;28;20672;-62
2024/03/10 04:40:20;;;;;;;53.40;29.85;;;2.40;99.90;;;;;;5131930;28;20195;-60
2024/03/10 04:42:47;;;;;;;57.03;31.98;;;2.40;99.90;;;;;;5132268;28;20215;-61
2024/03/10 04:45:13;;;;;;;51.95;29.55;;;2.40;99.90;;;;;;5132353;28;20226;-61
2024/03/10 04:47:41;;;;;;;57.63;30.52;;;2.30;99.90;;;;;;5132017;28;20284;-62
2024/03/10 04:50:08;;;;;;;55.80;32.30;;;2.40;99.90;;;;;;5133612;28;20210;-61
2024/03/10 04:52:35;;;;;;;59.50;32.25;;;2.30;99.90;;;;;;5145159;27;20305;-61
2024/03/10 04:55:03;;;;;;;62.88;32.78;;;2.30;99.90;;;;;;5144404;28;20566;-61
2024/03/10 04:57:32;;;;;;;58.80;32.75;;;2.30;99.90;;;;;;5139705;28;20745;-61
2024/03/10 04:59:59;;;;;;;60.00;31.92;;;2.30;99.90;;;;;;5131983;28;20239;-60
2024/03/10 05:02:26;;;;;;;58.50;32.70;;;2.30;99.90;;;;;;5135849;22;20236;-60
2024/03/10 05:04:54;;;;;;;58.78;33.85;;;2.30;99.90;;;;;;5090613;28;20204;-61
2024/03/10 05:07:21;;;;;;;59.17;32.70;;;2.30;99.90;;;;;;5089854;28;20200;-60
2024/03/10 05:09:48;;;;;;;59.35;33.97;;;2.30;99.90;;;;;;5089580;28;20193;-59
2024/03/10 05:12:14;;;;;;;57.95;35.45;;;2.30;99.90;;;;;;5090272;28;20225;-59
2024/03/10 05:14:41;;;;;;;58.08;35.00;;;2.30;99.90;;;;;;5090029;28;20205;-60
2024/03/10 05:17:11;;;;;;;66.03;33.42;;;2.30;99.90;;;;;;5089437;28;20208;-59
2024/03/10 05:19:41;;;;;;;65.60;36.40;;;2.30;99.90;;;;;;5089944;28;20196;-60
2024/03/10 05:22:10;;;;;;;59.40;33.55;;;2.30;99.90;;;;;;5089620;28;20232;-60
2024/03/10 05:24:41;;;;;;;63.90;35.28;;;2.20;99.90;;;;;;5076291;28;20227;-60
2024/03/10 05:27:08;;;;;;;62.20;33.47;;;2.30;99.90;;;;;;5075894;28;20189;-60
2024/03/10 05:29:35;;;;;;;66.43;35.00;;;2.20;99.90;;;;;;5075760;28;20562;-61
2024/03/10 05:32:02;;;;;;;59.65;32.58;;;2.20;99.90;;;;;;5075571;28;20300;-60
2024/03/10 05:34:30;;;;;;;60.00;33.83;;;2.30;99.90;;;;;;5075723;28;20201;-61
2024/03/10 05:36:57;;;;;;;62.25;33.20;;;2.30;99.90;;;;;;5075709;28;20209;-60
2024/03/10 05:39:25;;;;;;;66.93;37.58;;;2.30;99.90;;;;;;5075637;28;20300;-60
2024/03/10 05:41:52;;;;;;;60.47;33.13;;;2.30;99.90;;;;;;5075878;28;20224;-60
2024/03/10 05:44:18;;;;;;;58.83;33.92;;;2.30;99.90;;;;;;5075733;28;20197;-60
2024/03/10 05:46:46;;;;;;;57.55;34.35;;;2.30;99.90;;;;;;5075469;28;20233;-59
2024/03/10 05:49:13;;;;;;;63.20;35.00;;;2.20;99.90;;;;;;5075614;28;20201;-63
2024/03/10 05:51:39;;;;;;;59.30;32.47;;;2.20;99.90;;;;;;5074905;28;20720;-61
2024/03/10 05:54:06;;;;;;;60.38;32.63;;;2.20;99.90;;;;;;5075148;28;20215;-58
2024/03/10 05:56:34;;;;;;;64.30;34.95;;;2.20;99.90;;;;;;5075412;28;20201;-60
2024/03/10 05:59:01;;;;;;;61.63;34.85;;;2.20;99.90;;;;;;5076337;28;20204;-60
2024/03/10 06:01:28;;;;;;;69.13;37.30;;;2.30;99.90;;;;;;5077270;28;20232;-61
2024/03/10 06:03:55;;;;;;;57.42;33.97;;;2.30;99.90;;;;;;5075984;28;20197;-61
2024/03/10 06:06:22;;;;;;;59.65;35.35;;;2.30;99.90;;;;;;5075368;28;20204;-59
2024/03/10 06:08:49;;;;;;;65.70;38.17;;;2.30;99.90;;;;;;5075370;28;20201;-61
2024/03/10 06:11:18;;;;;;;65.72;34.78;;;2.30;99.90;;;;;;5075890;28;20591;-59
2024/03/10 06:13:47;;;;;;;68.03;34.65;;;2.30;99.90;;;;;;5077070;28;20224;-60
2024/03/10 06:16:13;;;;;;;59.08;34.35;;;2.30;99.90;;;;;;5076258;28;20205;-61
2024/03/10 06:26:52;;;;;;;58.97;32.97;;;2.40;99.90;;;;;;5075070;28;20180;-60
2024/03/10 06:29:21;;;;;;;65.22;35.10;;;2.50;99.90;;;;;;5074866;28;20208;-60
2024/03/10 06:31:48;;;;;;;59.35;35.92;;;2.50;99.90;;;;;;5075322;28;20246;-59
2024/03/10 06:34:15;;;;;;;65.95;34.22;;;2.60;99.90;;;;;;5075848;28;20205;-59
2024/03/10 06:36:42;;;;;;;64.25;36.40;;;2.60;99.90;;;;;;5075428;28;20281;-59
2024/03/10 06:39:09;;;;;;;58.97;34.35;;;2.60;99.90;;;;;;5075826;28;20204;-60
2024/03/10 06:41:35;;;;;;;56.88;33.15;;;2.70;99.90;;;;;;5077210;28;20225;-60
2024/03/10 06:44:04;;;;;;;61.58;34.83;;;2.70;99.90;;;;;;5076412;28;20204;-60
2024/03/10 06:46:32;;;;;;;71.30;36.03;;;2.80;99.90;;;;;;5076271;28;20693;-60
2024/03/10 06:48:59;;;;;;;60.97;34.88;;;2.80;99.90;;;;;;5075750;28;20197;-59
2024/03/10 06:51:25;;;;;;;62.47;35.63;;;2.90;99.90;;;;;;5075755;28;20229;-60
2024/03/10 06:53:52;;;;;;;62.25;35.40;;;3.00;99.90;;;;;;5075601;28;20284;-58
2024/03/10 06:56:19;;;;;;;55.67;33.70;;;3.10;99.90;;;;;;5075693;28;20654;-60
2024/03/10 06:58:51;;;;;;;59.75;35.10;;;3.10;99.90;;;;;;5075972;28;20197;-60
2024/03/10 07:01:19;;;;;;;57.60;33.40;;;3.10;99.90;;;;;;5075885;28;20282;-59
2024/03/10 07:03:48;;;;;;;55.70;33.47;;;3.20;99.90;;;;;;5075175;28;20193;-60
2024/03/10 07:06:15;;;;;;;55.67;33.95;;;3.30;99.90;;;;;;5075657;28;20251;-60
2024/03/10 07:08:42;;;;;;;52.03;31.33;;;3.30;99.90;;;;;;5075554;28;20209;-60
2024/03/10 07:11:10;;;;;;;52.13;31.95;;;3.30;99.90;;;;;;5075034;28;20252;-60
2024/03/10 07:13:37;;;;;;;48.17;31.02;;;3.40;99.90;;;;;;5074727;28;20224;-62
2024/03/10 07:16:05;;;;;;;52.75;32.45;;;3.40;99.90;;;;;;5074874;28;20197;-60
2024/03/10 07:18:31;;;;;;;50.63;31.17;;;3.40;99.90;;;;;;5074425;28;20600;-60
2024/03/10 07:21:00;;;;;;;53.80;31.38;;;3.50;99.90;;;;;;5074971;28;20200;-60
2024/03/10 07:23:26;;;;;;;51.13;31.77;;;3.50;99.90;;;;;;5076201;28;20201;-59
2024/03/10 07:25:53;;;;;;;51.58;32.33;;;3.60;99.90;;;;;;5075602;28;20200;-60
2024/03/10 07:28:20;;;;;;;56.65;31.58;;;3.60;99.90;;;;;;5075486;28;20224;-61
2024/03/10 07:30:47;;;;;;;51.15;33.20;;;3.70;99.90;;;;;;5075251;28;20259;-61
2024/03/10 07:33:13;;;;;;;48.65;29.77;;;3.80;99.90;;;;;;5074846;28;20212;-60
2024/03/10 07:35:40;;;;;;;42.95;29.95;;;3.80;99.90;;;;;;5074275;28;20274;-60
2024/03/10 07:38:08;;;;;;;45.45;31.23;;;3.90;99.90;;;;;;5073985;28;20197;-60
2024/03/10 07:40:35;;;;;;;46.67;29.50;;;3.90;99.90;;;;;;5074386;28;20686;-59
2024/03/10 07:43:03;;;;;;;45.17;30.08;;;4.10;99.90;;;;;;5074226;28;20228;-61
2024/03/10 07:45:31;;;;;;;42.78;28.95;;;4.10;99.90;;;;;;5074091;28;20548;-59
2024/03/10 07:47:58;;;;;;;47.25;29.52;;;4.20;99.90;;;;;;5073931;28;20255;-59
2024/03/10 07:50:24;;;;;;;45.92;30.20;;;4.30;99.90;;;;;;5075704;28;20258;-60
2024/03/10 07:52:51;;;;;;;44.50;29.05;;;4.40;99.90;;;;;;5075631;28;20220;-59
2024/03/10 07:55:19;;;;;;;43.17;28.92;;;4.40;99.90;;;;;;5074181;28;20648;-58
2024/03/10 07:57:46;;;;;;;45.22;27.17;;;4.50;99.90;;;;;;5073807;28;20766;-58
2024/03/10 08:00:16;;;;;;;43.08;29.48;;;4.60;99.90;;;;;;5073083;28;20626;-58
2024/03/10 08:02:43;;;;;;;48.80;29.77;;;4.60;99.90;;;;;;5073048;28;20225;-59
2024/03/10 08:05:12;;;;;;;43.58;28.63;;;4.80;99.90;;;;;;5073179;28;20283;-59
2024/03/10 08:07:39;;;;;;;45.15;27.73;;;4.80;99.90;;;;;;5073750;28;20303;-58
2024/03/10 08:10:08;;;;;;;44.13;29.60;;;4.90;99.90;;;;;;5073162;28;20623;-59
2024/03/10 08:12:36;;;;;;;42.60;27.55;;;4.90;99.90;;;;;;5073282;28;20255;-59
2024/03/10 08:15:03;;;;;;;41.40;28.35;;;5.00;99.90;;;;;;5073515;28;20227;-58
2024/03/10 08:17:30;;;;;;;41.20;28.60;;;5.10;99.90;;;;;;5073549;28;20208;-58
2024/03/10 08:19:56;;;;;;;40.83;27.75;;;5.20;99.90;;;;;;5073140;28;20200;-58
2024/03/10 08:22:23;;;;;;;45.00;28.60;;;5.30;99.90;;;;;;5073154;28;20220;-59
2024/03/10 08:24:51;;;;;;;35.78;25.40;;;5.40;99.90;;;;;;5072935;28;20207;-58
2024/03/10 08:27:17;;;;;;;40.75;27.98;;;5.40;99.90;;;;;;5073444;28;20204;-58
2024/03/10 08:29:45;;;;;;;41.35;28.60;;;5.40;99.90;;;;;;5073109;28;20201;-59
2024/03/10 08:32:12;;;;;;;40.50;27.60;;;5.50;99.90;;;;;;5073180;28;20217;-59
2024/03/10 08:34:40;;;;;;;42.47;28.30;;;5.60;99.90;;;;;;5073300;28;20235;-59
2024/03/10 08:37:07;;;;;;;37.45;27.42;;;5.70;99.90;;;;;;5072885;28;20201;-57
2024/03/10 08:39:34;;;;;;;37.58;26.58;;;5.80;99.90;;;;;;5073171;28;20295;-58
2024/03/10 08:42:01;;;;;;;36.15;26.00;;;5.90;99.90;;;;;;5073210;28;20235;-58
2024/03/10 08:44:27;;;;;;;40.95;28.35;;;5.90;99.90;;;;;;5073399;28;20201;-59
2024/03/10 08:46:56;;;;;;;40.53;29.45;;;6.00;99.90;;;;;;5073342;28;20197;-59
2024/03/10 08:49:23;;;;;;;39.92;26.75;;;6.10;99.90;;;;;;5072773;28;20690;-62
2024/03/10 08:51:50;;;;;;;37.22;27.20;;;6.10;99.90;;;;;;5072953;28;20227;-60
2024/03/10 08:54:16;;;;;;;40.13;26.85;;;6.10;99.90;;;;;;5074494;28;20225;-61
2024/03/10 08:56:43;;;;;;;39.85;27.08;;;6.10;99.90;;;;;;5078197;28;20208;-60
2024/03/10 08:59:11;;;;;;;34.58;25.40;;;6.10;99.90;;;;;;5078835;28;20201;-60
2024/03/10 09:01:38;;;;;;;34.33;25.20;;;6.20;99.90;;;;;;5078022;28;20236;-60
2024/03/10 09:04:07;;;;;;;37.10;25.67;;;6.30;99.90;;;;;;5077916;28;20570;-60
2024/03/10 09:06:34;;;;;;;36.65;25.63;;;6.40;99.90;;;;;;5077019;28;20213;-60
2024/03/10 09:09:01;;;;;;;37.50;27.75;;;6.50;99.90;;;;;;5076733;28;20615;-60
2024/03/10 09:11:30;;;;;;;37.47;25.52;;;6.60;99.90;;;;;;5076992;28;20227;-60
2024/03/10 09:13:58;;;;;;;40.70;27.17;;;6.60;99.90;;;;;;5076714;28;20217;-60
2024/03/10 09:16:25;;;;;;;33.95;25.52;;;6.60;99.90;;;;;;5077461;28;20211;-60
2024/03/10 09:18:52;;;;;;;36.10;24.75;;;6.60;99.90;;;;;;5077156;28;20269;-60
2024/03/10 09:21:20;;;;;;;34.47;25.13;;;6.60;99.90;;;;;;5076779;28;20232;-61
2024/03/10 09:23:49;;;;;;;31.20;24.80;;;6.60;99.90;;;;;;5076691;28;20201;-61
2024/03/10 09:26:17;;;;;;;36.33;28.05;;;6.70;99.90;;;;;;5075742;28;20697;-60
2024/03/10 09:28:45;;;;;;;32.75;24.45;;;6.70;99.90;;;;;;5076027;28;20578;-61
2024/03/10 09:31:14;;;;;;;31.02;23.67;;;6.80;99.90;;;;;;5075528;28;20690;-61
2024/03/10 09:33:43;;;;;;;29.75;22.50;;;6.80;99.90;;;;;;5075736;28;20263;-61
2024/03/10 09:36:10;;;;;;;36.58;25.80;;;6.80;99.90;;;;;;5077953;28;20205;-61
2024/03/10 09:38:38;;;;;;;32.33;24.27;;;6.90;99.90;;;;;;5077735;28;20201;-61
2024/03/10 09:41:08;;;;;;;31.48;22.77;;;7.10;99.90;;;;;;5076424;28;20703;-61
2024/03/10 09:43:37;;;;;;;30.75;23.45;;;7.20;99.90;;;;;;5076507;28;20288;-62
2024/03/10 09:46:04;;;;;;;34.50;24.80;;;7.30;99.90;;;;;;5077564;28;20197;-62
2024/03/10 09:48:32;;;;;;;35.83;24.60;;;7.40;99.90;;;;;;5079683;28;20644;-61
2024/03/10 09:51:00;;;;;;;33.70;24.95;;;7.40;99.90;;;;;;5078694;28;20205;-59
2024/03/10 09:53:27;;;;;;;36.55;24.55;;;7.50;99.90;;;;;;5076158;28;20221;-61
2024/03/10 09:55:55;;;;;;;34.28;24.25;;;7.60;99.90;;;;;;5076438;28;20218;-61
2024/03/10 09:58:34;;;;;;;30.73;23.73;;;7.60;99.90;;;;;;5075862;28;20201;-59
2024/03/10 10:01:11;;;;;;;32.42;23.63;;;7.60;99.90;;;;;;5075975;28;20227;-60
2024/03/10 10:03:40;;;;;;;32.90;23.80;;;7.70;99.90;;;;;;5077956;28;20212;-61
2024/03/10 10:06:08;;;;;;;32.17;25.83;;;7.80;99.90;;;;;;5076657;28;20225;-61
2024/03/10 10:08:35;;;;;;;33.42;23.38;;;7.80;99.90;;;;;;5076827;28;20240;-61
2024/03/10 10:11:03;;;;;;;31.92;23.63;;;7.80;99.90;;;;;;5076057;28;20225;-61
2024/03/10 10:13:30;;;;;;;35.80;24.35;;;7.80;99.90;;;;;;5075431;28;20231;-61
2024/03/10 10:15:57;;;;;;;30.73;23.65;;;7.80;99.90;;;;;;5075498;28;20201;-61
2024/03/10 10:18:24;;;;;;;33.65;24.42;;;7.90;99.90;;;;;;5075956;28;20207;-61
2024/03/10 10:20:53;;;;;;;31.80;23.55;;;7.90;99.90;;;;;;5074906;28;20207;-61
2024/03/10 10:23:23;;;;;;;36.00;25.05;;;8.00;99.90;;;;;;5075419;28;20204;-61
2024/03/10 10:25:52;;;;;;;32.20;23.58;;;8.00;99.90;;;;;;5074883;28;20691;-61
2024/03/10 10:28:21;;;;;;;33.95;24.80;;;8.10;99.90;;;;;;5074925;28;20236;-61
2024/03/10 10:30:48;;;;;;;31.83;24.08;;;8.10;99.90;;;;;;5075359;28;20211;-62
2024/03/10 10:33:15;;;;;;;29.20;22.40;;;8.30;99.90;;;;;;5075450;28;20221;-61
2024/03/10 10:35:44;;;;;;;37.33;25.35;;;8.50;99.90;;;;;;5075180;28;20205;-61
2024/03/10 10:38:14;;;;;;;32.10;22.67;;;8.70;99.90;;;;;;5075107;28;20266;-61
2024/03/10 10:40:41;;;;;;;30.00;24.90;;;8.90;99.90;;;;;;5074724;28;20205;-62
2024/03/10 10:43:10;;;;;;;31.48;23.98;;;8.90;99.90;;;;;;5075022;28;20281;-61
2024/03/10 10:45:38;;;;;;;28.60;23.80;;;9.00;99.90;;;;;;5075600;28;20247;-64
2024/03/10 10:48:08;;;;;;;30.83;23.77;;;9.10;99.90;;;;;;5074710;28;20258;-62
2024/03/10 10:50:35;;;;;;;29.13;22.92;;;9.10;99.90;;;;;;5074546;28;20439;-63
2024/03/10 10:53:02;;;;;;;31.38;22.92;;;9.10;99.90;;;;;;5073781;28;20737;-63
2024/03/10 10:55:29;;;;;;;30.35;23.13;;;9.10;99.90;;;;;;5074092;28;20205;-60
2024/03/10 10:57:59;;;;;;;25.05;21.15;;;9.10;99.90;;;;;;5073681;28;20201;-61
2024/03/10 11:00:28;;;;;;;31.20;22.42;;;9.20;99.90;;;;;;5074501;28;20197;-59
2024/03/10 11:03:13;;;;;;;30.00;23.20;;;9.20;99.90;;;;;;5073725;28;20233;-58
2024/03/10 11:05:41;;;;;;;28.20;22.87;;;9.30;99.90;;;;;;5073851;28;20897;-58
2024/03/10 11:08:09;;;;;;;25.63;20.83;;;9.40;99.90;;;;;;5073767;28;20505;-59
2024/03/10 11:10:49;;;;;;;27.13;20.87;;;9.40;99.90;;;;;;5073961;28;20439;-59
2024/03/10 11:13:18;;;;;;;27.37;21.50;;;9.50;99.90;;;;;;5073920;28;20428;-59
2024/03/10 11:15:46;;;;;;;29.40;22.63;;;9.60;99.90;;;;;;5073930;28;20440;-59
2024/03/10 11:18:26;;;;;;;28.57;24.23;;;9.60;99.90;;;;;;5073849;28;20431;-59
2024/03/10 11:20:55;;;;;;;31.57;23.07;;;9.80;99.90;;;;;;5074283;28;20533;-58
2024/03/10 11:23:42;;;;;;;28.53;21.10;;;9.90;99.90;;;;;;5075425;28;20522;-57
2024/03/10 11:26:12;;;;;;;30.60;23.30;;;10.10;99.90;;;;;;5075462;28;20761;-59
2024/03/10 11:28:52;;;;;;;26.20;21.47;;;10.20;99.90;;;;;;5074394;28;20447;-59
2024/03/10 11:31:37;;;;;;;27.57;23.00;;;10.20;99.90;;;;;;5074466;28;20493;-59
2024/03/10 11:34:08;;;;;;;29.47;21.77;;;10.10;99.90;;;;;;5073652;28;20466;-58
2024/03/10 11:36:36;;;;;;;25.97;21.97;;;10.00;99.90;;;;;;5073485;28;20554;-59
2024/03/10 11:39:04;;;;;;;28.27;23.10;;;10.00;99.90;;;;;;5073731;28;20455;-59
2024/03/10 11:41:31;;;;;;;29.73;23.40;;;10.00;99.90;;;;;;5074853;28;20502;-59
2024/03/10 11:43:58;;;;;;;28.10;22.37;;;10.00;99.90;;;;;;5076529;28;20443;-59
2024/03/10 11:46:29;;;;;;;28.20;21.40;;;10.00;99.90;;;;;;5074602;28;20447;-60
2024/03/10 11:48:56;;;;;;;29.37;23.13;;;10.10;99.90;;;;;;5073487;28;20416;-59
2024/03/10 11:51:27;;;;;;;26.37;21.17;;;10.20;99.90;;;;;;5073128;28;20889;-59
2024/03/10 11:53:54;;;;;;;27.47;20.83;;;10.30;99.90;;;;;;5073231;28;20467;-59
2024/03/10 11:56:21;;;;;;;25.37;21.30;;;10.50;99.90;;;;;;5073120;28;20446;-59
2024/03/10 11:58:48;;;;;;;25.23;20.10;;;10.70;99.90;;;;;;5072939;28;20811;-58
2024/03/10 12:01:16;;;;;;;22.87;19.70;;;10.90;99.90;;;;;;5073125;28;20502;-59
2024/03/10 12:03:45;;;;;;;23.60;19.53;;;11.10;99.90;;;;;;5073181;28;20535;-59
2024/03/10 12:06:14;;;;;;;25.07;20.63;;;11.40;99.90;;;;;;5072928;28;20448;-59
2024/03/10 12:08:43;;;;;;;23.10;20.20;;;11.70;99.90;;;;;;5073246;28;20538;-59
2024/03/10 12:11:11;;;;;;;23.80;19.53;;;12.00;98.60;;;;;;5077802;28;20463;-59
2024/03/10 12:13:41;;;;;;;22.37;17.73;;;12.10;97.50;;;;;;5080978;28;20488;-59
2024/03/10 12:16:08;;;;;;;21.30;19.00;;;12.20;96.50;;;;;;5078216;28;21000;-59
2024/03/10 12:18:36;;;;;;;22.97;18.73;;;12.30;95.50;;;;;;5075553;28;20451;-59
2024/03/10 12:21:06;;;;;;;22.90;19.47;;;12.30;95.40;;;;;;5073984;28;20470;-59
2024/03/10 12:23:34;;;;;;;25.57;20.20;;;12.30;94.30;;;;;;5073098;28;20428;-60
2024/03/10 12:26:09;;;;;;;26.43;18.77;;;12.20;93.50;;;;;;5073324;28;20505;-59
2024/03/10 12:28:36;;;;;;;24.50;19.47;;;12.00;93.50;;;;;;5073190;28;20514;-60
2024/03/10 12:31:07;;;;;;;23.53;20.63;;;11.90;93.60;;;;;;5072938;28;20459;-59
2024/03/10 12:33:35;;;;;;;23.00;19.20;;;11.80;93.40;;;;;;5074055;28;20423;-59
2024/03/10 12:36:02;;;;;;;23.33;19.77;;;11.80;93.90;;;;;;5077169;28;20439;-60
2024/03/10 12:38:28;;;;;;;23.27;20.17;;;11.90;93.70;;;;;;5076712;28;20440;-59
2024/03/10 12:40:55;;;;;;;23.40;18.97;;;11.90;93.30;;;;;;5076452;28;20435;-58
2024/03/10 12:43:23;;;;;;;25.27;20.57;;;11.90;93.30;;;;;;5076367;28;20917;-59
2024/03/10 12:45:51;;;;;;;22.47;19.20;;;12.00;93.50;;;;;;5076401;28;20436;-59
2024/03/10 12:48:18;;;;;;;23.03;19.87;;;12.10;93.50;;;;;;5076130;28;20471;-59
2024/03/10 12:50:45;;;;;;;23.90;18.50;;;12.20;93.20;;;;;;5076495;28;20443;-58
2024/03/10 12:53:11;;;;;;;24.73;19.73;;;12.20;92.70;;;;;;5076890;28;20968;-59
2024/03/10 12:55:38;;;;;;;23.77;19.70;;;12.20;92.00;;;;;;5077331;28;21026;-59
2024/03/10 12:58:05;;;;;;;26.60;19.97;;;12.10;91.90;;;;;;5076585;28;20447;-60
2024/03/10 13:00:35;;;;;;;25.13;19.87;;;12.10;91.50;;;;;;5076511;28;20445;-59
2024/03/10 13:03:05;;;;;;;24.80;20.30;;;12.00;91.40;;;;;;5076140;28;20466;-59
2024/03/10 13:05:32;;;;;;;25.37;19.53;;;11.90;91.60;;;;;;5076663;28;20439;-62